sensor_id;sensor_type;location;lat;lon;timestamp;pressure;altitude;pressure_sealevel;temperature;humidity
65190;BME280;51777;53.570;9.984;2023-03-21T00:00:47;101301.41;;;8.12;100.00
65190;BME280;51777;53.570;9.984;2023-03-21T00:03:13;101305.72;;;8.12;100.00
65190;BME280;51777;53.570;9.984;2023-03-21T00:05:40;101302.31;;;8.11;100.00
65190;BME280;51777;53.570;9.984;2023-03-21T00:08:06;101302.78;;;8.05;100.00
65190;BME280;51777;53.570;9.984;2023-03-21T00:10:32;101298.44;;;8.06;100.00
65190;BME280;51777;53.570;9.984;2023-03-21T00:12:57;101299.19;;;8.08;100.00
65190;BME280;51777;53.570;9.984;2023-03-21T00:15:24;101295.66;;;8.09;100.00
65190;BME280;51777;53.570;9.984;2023-03-21T00:17:57;101297.63;;;8.05;100.00
65190;BME280;51777;53.570;9.984;2023-03-21T00:20:31;101292.03;;;8.11;100.00
65190;BME280;51777;53.570;9.984;2023-03-21T00:22:59;101296.25;;;8.12;100.00
65190;BME280;51777;53.570;9.984;2023-03-21T00:25:26;101289.22;;;8.14;100.00
65190;BME280;51777;53.570;9.984;2023-03-21T00:27:51;101294.03;;;8.19;100.00
65190;BME280;51777;53.570;9.984;2023-03-21T00:30:17;101286.88;;;8.11;100.00
65190;BME280;51777;53.570;9.984;2023-03-21T00:32:42;101289.91;;;8.16;100.00
65190;BME280;51777;53.570;9.984;2023-03-21T00:35:08;101286.19;;;8.09;100.00
65190;BME280;51777;53.570;9.984;2023-03-21T00:37:34;101284.66;;;8.07;100.00
65190;BME280;51777;53.570;9.984;2023-03-21T00:39:59;101288.75;;;8.09;100.00
65190;BME280;51777;53.570;9.984;2023-03-21T00:42:25;101288.50;;;8.12;100.00
65190;BME280;51777;53.570;9.984;2023-03-21T00:44:51;101285.25;;;8.10;100.00
65190;BME280;51777;53.570;9.984;2023-03-21T00:47:16;101281.59;;;8.13;100.00
65190;BME280;51777;53.570;9.984;2023-03-21T00:49:42;101280.66;;;8.14;100.00
65190;BME280;51777;53.570;9.984;2023-03-21T00:52:09;101279.84;;;8.13;100.00
65190;BME280;51777;53.570;9.984;2023-03-21T00:54:36;101278.34;;;8.11;100.00
65190;BME280;51777;53.570;9.984;2023-03-21T00:57:02;101276.56;;;8.11;100.00
65190;BME280;51777;53.570;9.984;2023-03-21T00:59:28;101272.81;;;8.15;100.00
65190;BME280;51777;53.570;9.984;2023-03-21T01:01:54;101274.47;;;8.16;100.00
65190;BME280;51777;53.570;9.984;2023-03-21T01:04:20;101268.28;;;8.19;100.00
65190;BME280;51777;53.570;9.984;2023-03-21T01:06:46;101262.06;;;8.21;100.00
65190;BME280;51777;53.570;9.984;2023-03-21T01:09:14;101259.50;;;8.21;100.00
65190;BME280;51777;53.570;9.984;2023-03-21T01:11:41;101265.59;;;8.20;100.00
65190;BME280;51777;53.570;9.984;2023-03-21T01:14:07;101267.09;;;8.23;100.00
65190;BME280;51777;53.570;9.984;2023-03-21T01:16:33;101261.13;;;8.22;100.00
65190;BME280;51777;53.570;9.984;2023-03-21T01:18:58;101266.03;;;8.14;100.00
65190;BME280;51777;53.570;9.984;2023-03-21T01:21:24;101255.03;;;8.01;100.00
65190;BME280;51777;53.570;9.984;2023-03-21T01:23:49;101256.41;;;8.05;100.00
65190;BME280;51777;53.570;9.984;2023-03-21T01:26:15;101264.88;;;7.96;100.00
65190;BME280;51777;53.570;9.984;2023-03-21T01:28:42;101258.66;;;7.99;100.00
65190;BME280;51777;53.570;9.984;2023-03-21T01:31:08;101264.97;;;8.06;100.00
65190;BME280;51777;53.570;9.984;2023-03-21T01:33:35;101261.13;;;8.00;100.00
65190;BME280;51777;53.570;9.984;2023-03-21T01:36:02;101258.09;;;8.06;100.00
65190;BME280;51777;53.570;9.984;2023-03-21T01:38:28;101257.16;;;8.07;100.00
65190;BME280;51777;53.570;9.984;2023-03-21T01:40:53;101255.03;;;8.12;100.00
65190;BME280;51777;53.570;9.984;2023-03-21T01:43:31;101255.41;;;8.08;100.00
65190;BME280;51777;53.570;9.984;2023-03-21T01:48:42;101248.00;;;8.03;100.00
65190;BME280;51777;53.570;9.984;2023-03-21T01:51:10;101250.00;;;8.11;100.00
65190;BME280;51777;53.570;9.984;2023-03-21T01:53:37;101249.19;;;8.10;100.00
65190;BME280;51777;53.570;9.984;2023-03-21T01:56:18;101246.59;;;8.10;100.00
65190;BME280;51777;53.570;9.984;2023-03-21T01:58:48;101251.16;;;8.18;100.00
65190;BME280;51777;53.570;9.984;2023-03-21T02:01:14;101245.91;;;8.19;100.00
65190;BME280;51777;53.570;9.984;2023-03-21T02:03:41;101245.44;;;8.14;100.00
65190;BME280;51777;53.570;9.984;2023-03-21T02:06:18;101233.38;;;8.15;100.00
65190;BME280;51777;53.570;9.984;2023-03-21T02:08:47;101234.06;;;8.17;100.00
65190;BME280;51777;53.570;9.984;2023-03-21T02:11:13;101242.03;;;8.25;100.00
65190;BME280;51777;53.570;9.984;2023-03-21T02:13:39;101240.84;;;8.29;100.00
65190;BME280;51777;53.570;9.984;2023-03-21T02:16:15;101238.16;;;8.31;100.00
65190;BME280;51777;53.570;9.984;2023-03-21T02:21:42;101234.53;;;8.33;100.00
65190;BME280;51777;53.570;9.984;2023-03-21T02:24:37;101231.63;;;8.38;100.00
65190;BME280;51777;53.570;9.984;2023-03-21T02:27:17;101232.56;;;8.37;100.00
65190;BME280;51777;53.570;9.984;2023-03-21T02:38:42;101213.34;;;8.41;100.00
65190;BME280;51777;53.570;9.984;2023-03-21T02:44:10;101217.34;;;8.45;100.00
65190;BME280;51777;53.570;9.984;2023-03-21T02:49:34;101216.16;;;8.49;100.00
65190;BME280;51777;53.570;9.984;2023-03-21T02:52:05;101215.22;;;8.50;100.00
65190;BME280;51777;53.570;9.984;2023-03-21T02:54:33;101217.78;;;8.50;100.00
65190;BME280;51777;53.570;9.984;2023-03-21T02:57:01;101215.09;;;8.51;100.00
65190;BME280;51777;53.570;9.984;2023-03-21T02:59:29;101214.97;;;8.53;100.00
65190;BME280;51777;53.570;9.984;2023-03-21T03:01:55;101213.91;;;8.56;100.00
65190;BME280;51777;53.570;9.984;2023-03-21T03:04:24;101210.41;;;8.57;100.00
65190;BME280;51777;53.570;9.984;2023-03-21T03:07:18;101210.88;;;8.50;100.00
65190;BME280;51777;53.570;9.984;2023-03-21T03:13:02;101207.00;;;8.56;100.00
65190;BME280;51777;53.570;9.984;2023-03-21T03:21:10;101204.38;;;8.67;100.00
65190;BME280;51777;53.570;9.984;2023-03-21T03:23:54;101205.09;;;8.69;100.00
65190;BME280;51777;53.570;9.984;2023-03-21T03:26:32;101201.72;;;8.69;100.00
65190;BME280;51777;53.570;9.984;2023-03-21T03:29:09;101194.53;;;8.72;100.00
65190;BME280;51777;53.570;9.984;2023-03-21T03:31:46;101194.78;;;8.69;100.00
65190;BME280;51777;53.570;9.984;2023-03-21T03:34:19;101187.06;;;8.69;100.00
65190;BME280;51777;53.570;9.984;2023-03-21T03:36:49;101195.97;;;8.65;100.00
65190;BME280;51777;53.570;9.984;2023-03-21T03:39:21;101193.38;;;8.65;100.00
65190;BME280;51777;53.570;9.984;2023-03-21T03:41:55;101193.38;;;8.65;100.00
65190;BME280;51777;53.570;9.984;2023-03-21T03:44:22;101192.22;;;8.69;100.00
65190;BME280;51777;53.570;9.984;2023-03-21T03:47:29;101189.84;;;8.66;100.00
65190;BME280;51777;53.570;9.984;2023-03-21T03:52:58;101198.88;;;8.72;100.00
65190;BME280;51777;53.570;9.984;2023-03-21T03:55:26;101196.66;;;8.67;100.00
65190;BME280;51777;53.570;9.984;2023-03-21T03:58:01;101195.97;;;8.65;100.00
65190;BME280;51777;53.570;9.984;2023-03-21T04:00:31;101191.75;;;8.64;100.00
65190;BME280;51777;53.570;9.984;2023-03-21T04:02:56;101184.13;;;8.63;100.00
65190;BME280;51777;53.570;9.984;2023-03-21T04:05:23;101187.41;;;8.65;100.00
65190;BME280;51777;53.570;9.984;2023-03-21T04:07:49;101179.81;;;8.63;100.00
65190;BME280;51777;53.570;9.984;2023-03-21T04:10:15;101181.69;;;8.61;100.00
65190;BME280;51777;53.570;9.984;2023-03-21T04:12:41;101183.88;;;8.66;100.00
65190;BME280;51777;53.570;9.984;2023-03-21T04:15:07;101190.56;;;8.68;100.00
65190;BME280;51777;53.570;9.984;2023-03-21T04:17:33;101184.47;;;8.69;100.00
65190;BME280;51777;53.570;9.984;2023-03-21T04:19:58;101183.97;;;8.75;100.00
65190;BME280;51777;53.570;9.984;2023-03-21T04:22:24;101185.75;;;8.75;100.00
65190;BME280;51777;53.570;9.984;2023-03-21T04:24:49;101190.63;;;8.78;100.00
65190;BME280;51777;53.570;9.984;2023-03-21T04:27:15;101185.13;;;8.82;100.00
65190;BME280;51777;53.570;9.984;2023-03-21T04:29:41;101190.97;;;8.85;100.00
65190;BME280;51777;53.570;9.984;2023-03-21T04:32:07;101182.69;;;8.81;100.00
65190;BME280;51777;53.570;9.984;2023-03-21T04:34:42;101180.19;;;8.79;100.00
65190;BME280;51777;53.570;9.984;2023-03-21T04:37:09;101182.09;;;8.77;100.00
65190;BME280;51777;53.570;9.984;2023-03-21T04:39:36;101175.03;;;8.79;100.00
65190;BME280;51777;53.570;9.984;2023-03-21T04:42:03;101178.44;;;8.80;100.00
65190;BME280;51777;53.570;9.984;2023-03-21T04:44:29;101177.63;;;8.79;100.00
65190;BME280;51777;53.570;9.984;2023-03-21T04:46:54;101181.63;;;8.83;100.00
65190;BME280;51777;53.570;9.984;2023-03-21T04:49:20;101178.34;;;8.81;100.00
65190;BME280;51777;53.570;9.984;2023-03-21T04:51:48;101170.84;;;8.78;100.00
65190;BME280;51777;53.570;9.984;2023-03-21T04:54:14;101177.53;;;8.81;100.00
65190;BME280;51777;53.570;9.984;2023-03-21T04:56:39;101173.19;;;8.81;100.00
65190;BME280;51777;53.570;9.984;2023-03-21T04:59:08;101174.81;;;8.82;100.00
65190;BME280;51777;53.570;9.984;2023-03-21T05:01:34;101169.66;;;8.82;100.00
65190;BME280;51777;53.570;9.984;2023-03-21T05:04:00;101174.00;;;8.82;100.00
65190;BME280;51777;53.570;9.984;2023-03-21T05:06:27;101171.53;;;8.80;100.00
65190;BME280;51777;53.570;9.984;2023-03-21T05:08:54;101178.34;;;8.81;100.00
65190;BME280;51777;53.570;9.984;2023-03-21T05:11:21;101176.69;;;8.80;100.00
65190;BME280;51777;53.570;9.984;2023-03-21T05:13:46;101171.44;;;8.82;100.00
65190;BME280;51777;53.570;9.984;2023-03-21T05:16:12;101175.84;;;8.80;100.00
65190;BME280;51777;53.570;9.984;2023-03-21T05:18:37;101175.16;;;8.78;100.00
65190;BME280;51777;53.570;9.984;2023-03-21T05:21:03;101177.53;;;8.81;100.00
65190;BME280;51777;53.570;9.984;2023-03-21T05:23:32;101175.56;;;8.73;100.00
65190;BME280;51777;53.570;9.984;2023-03-21T05:26:05;101172.28;;;8.71;100.00
65190;BME280;51777;53.570;9.984;2023-03-21T05:28:31;101168.19;;;8.69;100.00
65190;BME280;51777;53.570;9.984;2023-03-21T05:31:00;101165.72;;;8.67;100.00
65190;BME280;51777;53.570;9.984;2023-03-21T05:33:25;101166.31;;;8.71;100.00
65190;BME280;51777;53.570;9.984;2023-03-21T05:35:51;101161.28;;;8.69;100.00
65190;BME280;51777;53.570;9.984;2023-03-21T05:38:16;101164.81;;;8.68;100.00
65190;BME280;51777;53.570;9.984;2023-03-21T05:40:45;101164.69;;;8.70;100.00
65190;BME280;51777;53.570;9.984;2023-03-21T05:43:11;101159.06;;;8.65;100.00
65190;BME280;51777;53.570;9.984;2023-03-21T05:45:36;101159.19;;;8.63;100.00
65190;BME280;51777;53.570;9.984;2023-03-21T05:48:02;101156.34;;;8.66;100.00
65190;BME280;51777;53.570;9.984;2023-03-21T05:50:27;101157.28;;;8.65;100.00
65190;BME280;51777;53.570;9.984;2023-03-21T05:52:53;101150.97;;;8.69;100.00
65190;BME280;51777;53.570;9.984;2023-03-21T05:55:19;101151.66;;;8.71;100.00
65190;BME280;51777;53.570;9.984;2023-03-21T05:57:45;101152.09;;;8.76;100.00
65190;BME280;51777;53.570;9.984;2023-03-21T06:00:12;101159.81;;;8.76;100.00
65190;BME280;51777;53.570;9.984;2023-03-21T06:02:37;101163.22;;;8.77;100.00
65190;BME280;51777;53.570;9.984;2023-03-21T06:05:04;101166.63;;;8.77;100.00
65190;BME280;51777;53.570;9.984;2023-03-21T06:07:31;101158.53;;;8.82;100.00
65190;BME280;51777;53.570;9.984;2023-03-21T06:09:56;101161.47;;;8.77;100.00
65190;BME280;51777;53.570;9.984;2023-03-21T06:12:22;101155.50;;;8.77;100.00
65190;BME280;51777;53.570;9.984;2023-03-21T06:14:47;101154.66;;;8.76;100.00
65190;BME280;51777;53.570;9.984;2023-03-21T06:17:12;101151.28;;;8.76;100.00
65190;BME280;51777;53.570;9.984;2023-03-21T06:19:38;101147.63;;;8.78;100.00
65190;BME280;51777;53.570;9.984;2023-03-21T06:22:03;101148.69;;;8.76;100.00
65190;BME280;51777;53.570;9.984;2023-03-21T06:24:29;101141.91;;;8.75;100.00
65190;BME280;51777;53.570;9.984;2023-03-21T06:26:54;101148.81;;;8.74;100.00
65190;BME280;51777;53.570;9.984;2023-03-21T06:29:20;101145.06;;;8.78;100.00
65190;BME280;51777;53.570;9.984;2023-03-21T06:31:45;101146.25;;;8.74;100.00
65190;BME280;51777;53.570;9.984;2023-03-21T06:34:11;101143.66;;;8.74;100.00
65190;BME280;51777;53.570;9.984;2023-03-21T06:36:36;101142.84;;;8.74;100.00
65190;BME280;51777;53.570;9.984;2023-03-21T06:39:03;101147.31;;;8.72;100.00
65190;BME280;51777;53.570;9.984;2023-03-21T06:41:28;101146.50;;;8.71;100.00
65190;BME280;51777;53.570;9.984;2023-03-21T06:43:53;101145.31;;;8.75;100.00
65190;BME280;51777;53.570;9.984;2023-03-21T06:46:19;101145.75;;;8.80;100.00
65190;BME280;51777;53.570;9.984;2023-03-21T06:48:45;101146.75;;;8.89;100.00
65190;BME280;51777;53.570;9.984;2023-03-21T06:51:12;101141.81;;;8.97;100.00
65190;BME280;51777;53.570;9.984;2023-03-21T06:53:38;101156.66;;;9.05;100.00
65190;BME280;51777;53.570;9.984;2023-03-21T06:56:04;101153.25;;;9.04;100.00
65190;BME280;51777;53.570;9.984;2023-03-21T06:58:29;101149.50;;;9.08;100.00
65190;BME280;51777;53.570;9.984;2023-03-21T07:00:58;101153.31;;;9.14;100.00
65190;BME280;51777;53.570;9.984;2023-03-21T07:03:23;101141.25;;;9.15;100.00
65190;BME280;51777;53.570;9.984;2023-03-21T07:05:49;101148.63;;;9.19;100.00
65190;BME280;51777;53.570;9.984;2023-03-21T07:08:15;101150.13;;;9.22;100.00
65190;BME280;51777;53.570;9.984;2023-03-21T07:10:42;101154.75;;;9.28;100.00
65190;BME280;51777;53.570;9.984;2023-03-21T07:13:08;101155.16;;;9.23;100.00
65190;BME280;51777;53.570;9.984;2023-03-21T07:15:33;101155.16;;;9.23;100.00
65190;BME280;51777;53.570;9.984;2023-03-21T07:18:03;101154.41;;;9.32;100.00
65190;BME280;51777;53.570;9.984;2023-03-21T07:20:29;101159.09;;;9.27;100.00
65190;BME280;51777;53.570;9.984;2023-03-21T07:22:56;101150.25;;;9.20;100.00
65190;BME280;51777;53.570;9.984;2023-03-21T07:25:21;101153.13;;;9.27;100.00
65190;BME280;51777;53.570;9.984;2023-03-21T07:27:47;101155.09;;;9.34;100.00
65190;BME280;51777;53.570;9.984;2023-03-21T07:30:12;101160.25;;;9.34;100.00
65190;BME280;51777;53.570;9.984;2023-03-21T07:32:39;101158.09;;;9.39;100.00
65190;BME280;51777;53.570;9.984;2023-03-21T07:35:06;101157.72;;;9.44;100.00
65190;BME280;51777;53.570;9.984;2023-03-21T07:37:32;101159.50;;;9.44;100.00
65190;BME280;51777;53.570;9.984;2023-03-21T07:39:57;101146.69;;;9.42;100.00
65190;BME280;51777;53.570;9.984;2023-03-21T07:42:23;101152.16;;;9.49;100.00
65190;BME280;51777;53.570;9.984;2023-03-21T07:44:48;101155.16;;;9.54;100.00
65190;BME280;51777;53.570;9.984;2023-03-21T07:47:14;101149.78;;;9.57;100.00
65190;BME280;51777;53.570;9.984;2023-03-21T07:49:40;101156.84;;;9.64;100.00
65190;BME280;51777;53.570;9.984;2023-03-21T07:52:06;101151.31;;;9.69;100.00
65190;BME280;51777;53.570;9.984;2023-03-21T07:54:32;101154.13;;;9.66;100.00
65190;BME280;51777;53.570;9.984;2023-03-21T07:56:57;101153.63;;;9.72;100.00
65190;BME280;51777;53.570;9.984;2023-03-21T07:59:23;101146.84;;;9.71;100.00
65190;BME280;51777;53.570;9.984;2023-03-21T08:01:48;101159.44;;;9.64;100.00
65190;BME280;51777;53.570;9.984;2023-03-21T08:04:14;101143.13;;;9.64;100.00
65190;BME280;51777;53.570;9.984;2023-03-21T08:06:40;101155.66;;;9.68;100.00
65190;BME280;51777;53.570;9.984;2023-03-21T08:09:06;101152.69;;;9.73;100.00
65190;BME280;51777;53.570;9.984;2023-03-21T08:11:31;101151.88;;;9.73;100.00
65190;BME280;51777;53.570;9.984;2023-03-21T08:13:58;101153.63;;;9.72;100.00
65190;BME280;51777;53.570;9.984;2023-03-21T08:16:23;101150.50;;;9.68;100.00
65190;BME280;51777;53.570;9.984;2023-03-21T08:18:49;101154.31;;;9.74;100.00
65190;BME280;51777;53.570;9.984;2023-03-21T08:21:15;101144.69;;;9.76;100.00
65190;BME280;51777;53.570;9.984;2023-03-21T08:23:40;101146.06;;;9.80;100.00
65190;BME280;51777;53.570;9.984;2023-03-21T08:26:06;101144.84;;;9.84;100.00
65190;BME280;51777;53.570;9.984;2023-03-21T08:28:35;101145.81;;;9.83;100.00
65190;BME280;51777;53.570;9.984;2023-03-21T08:31:08;101146.06;;;9.80;100.00
65190;BME280;51777;53.570;9.984;2023-03-21T08:33:34;101151.78;;;9.84;100.00
65190;BME280;51777;53.570;9.984;2023-03-21T08:36:01;101146.47;;;9.85;100.00
65190;BME280;51777;53.570;9.984;2023-03-21T08:38:26;101148.94;;;9.87;100.00
65190;BME280;51777;53.570;9.984;2023-03-21T08:40:58;101150.88;;;9.94;100.00
65190;BME280;51777;53.570;9.984;2023-03-21T08:43:25;101138.63;;;9.96;100.00
65190;BME280;51777;53.570;9.984;2023-03-21T08:45:52;101156.91;;;10.05;100.00
65190;BME280;51777;53.570;9.984;2023-03-21T08:48:17;101140.28;;;9.97;100.00
65190;BME280;51777;53.570;9.984;2023-03-21T08:50:43;101150.19;;;10.02;100.00
65190;BME280;51777;53.570;9.984;2023-03-21T08:53:09;101151.00;;;10.02;100.00
65190;BME280;51777;53.570;9.984;2023-03-21T08:55:34;101152.91;;;10.00;100.00
65190;BME280;51777;53.570;9.984;2023-03-21T08:58:00;101145.84;;;10.02;100.00
65190;BME280;51777;53.570;9.984;2023-03-21T09:00:26;101148.69;;;9.99;100.00
65190;BME280;51777;53.570;9.984;2023-03-21T09:02:52;101147.75;;;10.00;100.00
65190;BME280;51777;53.570;9.984;2023-03-21T09:05:19;101143.13;;;10.04;100.00
65190;BME280;51777;53.570;9.984;2023-03-21T09:07:45;101147.78;;;10.10;100.00
65190;BME280;51777;53.570;9.984;2023-03-21T09:10:17;101145.88;;;10.12;100.00
65190;BME280;51777;53.570;9.984;2023-03-21T09:12:42;101138.56;;;10.17;100.00
65190;BME280;51777;53.570;9.984;2023-03-21T09:15:09;101140.56;;;10.14;100.00
65190;BME280;51777;53.570;9.984;2023-03-21T09:17:37;101139.69;;;10.24;100.00
65190;BME280;51777;53.570;9.984;2023-03-21T09:20:11;101143.75;;;10.27;100.00
65190;BME280;51777;53.570;9.984;2023-03-21T09:22:46;101134.53;;;10.34;100.00
65190;BME280;51777;53.570;9.984;2023-03-21T09:25:13;101140.38;;;10.36;100.00
65190;BME280;51777;53.570;9.984;2023-03-21T09:27:40;101143.78;;;10.37;100.00
65190;BME280;51777;53.570;9.984;2023-03-21T09:30:07;101138.06;;;10.33;100.00
65190;BME280;51777;53.570;9.984;2023-03-21T09:32:34;101138.59;;;10.37;100.00
65190;BME280;51777;53.570;9.984;2023-03-21T09:35:00;101138.19;;;10.41;100.00
65190;BME280;51777;53.570;9.984;2023-03-21T09:37:27;101139.31;;;10.48;100.00
65190;BME280;51777;53.570;9.984;2023-03-21T09:39:53;101141.88;;;10.48;100.00
65190;BME280;51777;53.570;9.984;2023-03-21T09:45:22;101134.28;;;10.56;100.00
65190;BME280;51777;53.570;9.984;2023-03-21T09:47:52;101135.63;;;10.61;100.00
65190;BME280;51777;53.570;9.984;2023-03-21T09:50:34;101133.44;;;10.66;100.00
65190;BME280;51777;53.570;9.984;2023-03-21T09:53:21;101135.50;;;10.72;100.00
65190;BME280;51777;53.570;9.984;2023-03-21T09:55:48;101139.31;;;10.77;100.00
65190;BME280;51777;53.570;9.984;2023-03-21T09:58:25;101136.56;;;10.79;100.00
65190;BME280;51777;53.570;9.984;2023-03-21T10:01:00;101132.78;;;10.83;100.00
65190;BME280;51777;53.570;9.984;2023-03-21T10:03:31;101137.13;;;10.73;100.00
65190;BME280;51777;53.570;9.984;2023-03-21T10:06:03;101132.34;;;10.78;100.00
65190;BME280;51777;53.570;9.984;2023-03-21T10:08:34;101128.56;;;10.82;100.00
65190;BME280;51777;53.570;9.984;2023-03-21T10:13:35;101135.50;;;10.81;100.00
65190;BME280;51777;53.570;9.984;2023-03-21T10:16:29;101125.56;;;10.77;100.00
65190;BME280;51777;53.570;9.984;2023-03-21T10:18:58;101132.09;;;10.81;100.00
65190;BME280;51777;53.570;9.984;2023-03-21T10:21:27;101130.72;;;10.77;100.00
65190;BME280;51777;53.570;9.984;2023-03-21T10:23:55;101126.94;;;10.81;100.00
65190;BME280;51777;53.570;9.984;2023-03-21T10:26:24;101123.63;;;10.79;100.00
65190;BME280;51777;53.570;9.984;2023-03-21T10:28:53;101125.56;;;10.77;100.00
65190;BME280;51777;53.570;9.984;2023-03-21T10:31:22;101110.31;;;10.74;100.00
65190;BME280;51777;53.570;9.984;2023-03-21T10:33:52;101110.03;;;10.77;100.00
65190;BME280;51777;53.570;9.984;2023-03-21T10:36:22;101112.75;;;10.85;100.00
65190;BME280;51777;53.570;9.984;2023-03-21T10:39:48;101109.88;;;10.88;100.00
65190;BME280;51777;53.570;9.984;2023-03-21T10:42:16;101110.31;;;10.83;100.00
65190;BME280;51777;53.570;9.984;2023-03-21T10:44:45;101111.00;;;10.85;100.00
65190;BME280;51777;53.570;9.984;2023-03-21T10:47:19;101110.69;;;10.88;100.00
65190;BME280;51777;53.570;9.984;2023-03-21T10:49:46;101106.09;;;10.82;100.00
65190;BME280;51777;53.570;9.984;2023-03-21T10:52:14;101106.50;;;10.78;100.00
65190;BME280;51777;53.570;9.984;2023-03-21T10:54:41;101105.69;;;10.77;100.00
65190;BME280;51777;53.570;9.984;2023-03-21T10:57:15;101104.88;;;10.77;100.00
65190;BME280;51777;53.570;9.984;2023-03-21T10:59:55;101105.69;;;10.77;100.00
65190;BME280;51777;53.570;9.984;2023-03-21T11:04:54;101099.44;;;10.61;100.00
65190;BME280;51777;53.570;9.984;2023-03-21T11:07:20;101100.25;;;10.71;100.00
65190;BME280;51777;53.570;9.984;2023-03-21T11:09:57;101097.25;;;10.75;100.00
65190;BME280;51777;53.570;9.984;2023-03-21T11:12:36;101095.31;;;10.87;100.00
65190;BME280;51777;53.570;9.984;2023-03-21T11:15:33;101088.91;;;10.91;100.00
65190;BME280;51777;53.570;9.984;2023-03-21T11:18:22;101092.59;;;10.79;100.00
65190;BME280;51777;53.570;9.984;2023-03-21T11:21:11;101088.81;;;10.83;100.00
65190;BME280;51777;53.570;9.984;2023-03-21T11:23:41;101089.84;;;11.00;100.00
65190;BME280;51777;53.570;9.984;2023-03-21T11:26:11;101087.91;;;11.11;100.00
65190;BME280;51777;53.570;9.984;2023-03-21T11:28:40;101081.41;;;11.07;100.00
65190;BME280;51777;53.570;9.984;2023-03-21T11:31:07;101076.72;;;11.21;100.00
65190;BME280;51777;53.570;9.984;2023-03-21T11:33:54;101079.88;;;11.14;100.00
65190;BME280;51777;53.570;9.984;2023-03-21T11:39:12;101072.19;;;11.32;100.00
65190;BME280;51777;53.570;9.984;2023-03-21T11:41:41;101071.69;;;11.29;100.00
65190;BME280;51777;53.570;9.984;2023-03-21T11:44:27;101070.72;;;11.30;100.00
65190;BME280;51777;53.570;9.984;2023-03-21T11:46:52;101069.13;;;11.19;100.00
65190;BME280;51777;53.570;9.984;2023-03-21T11:49:19;101064.78;;;11.10;100.00
65190;BME280;51777;53.570;9.984;2023-03-21T11:51:53;101070.88;;;11.18;100.00
65190;BME280;51777;53.570;9.984;2023-03-21T11:56:52;101061.22;;;11.11;100.00
65190;BME280;51777;53.570;9.984;2023-03-21T11:59:28;101060.72;;;10.98;100.00
65190;BME280;51777;53.570;9.984;2023-03-21T12:05:26;101049.31;;;11.28;100.00
65190;BME280;51777;53.570;9.984;2023-03-21T12:08:21;101050.09;;;11.38;100.00
65190;BME280;51777;53.570;9.984;2023-03-21T12:16:24;101038.03;;;11.56;100.00
65190;BME280;51777;53.570;9.984;2023-03-21T12:24:49;101039.69;;;11.75;100.00
65190;BME280;51777;53.570;9.984;2023-03-21T12:27:27;101032.69;;;11.58;100.00
65190;BME280;51777;53.570;9.984;2023-03-21T12:32:51;101017.78;;;11.42;100.00
65190;BME280;51777;53.570;9.984;2023-03-21T12:35:39;101023.72;;;11.25;100.00
65190;BME280;51777;53.570;9.984;2023-03-21T12:38:24;101025.63;;;11.23;100.00
65190;BME280;51777;53.570;9.984;2023-03-21T12:43:32;101017.25;;;11.11;100.00
65190;BME280;51777;53.570;9.984;2023-03-21T12:46:08;101019.72;;;11.03;100.00
65190;BME280;51777;53.570;9.984;2023-03-21T12:49:19;101015.22;;;11.05;100.00
65190;BME280;51777;53.570;9.984;2023-03-21T12:51:29;101002.19;;;10.97;100.00
65190;BME280;51777;53.570;9.984;2023-03-21T12:54:24;101001.66;;;10.93;100.00
65190;BME280;51777;53.570;9.984;2023-03-21T12:57:09;101006.31;;;10.80;100.00
65190;BME280;51777;53.570;9.984;2023-03-21T13:00:00;100998.50;;;10.89;100.00
65190;BME280;51777;53.570;9.984;2023-03-21T13:02:43;100994.16;;;10.90;100.00
65190;BME280;51777;53.570;9.984;2023-03-21T13:05:23;100995.59;;;11.02;100.00
65190;BME280;51777;53.570;9.984;2023-03-21T13:07:57;100991.50;;;11.09;100.00
65190;BME280;51777;53.570;9.984;2023-03-21T13:10:24;100988.47;;;11.14;100.00
65190;BME280;51777;53.570;9.984;2023-03-21T13:12:54;100985.38;;;11.10;100.00
65190;BME280;51777;53.570;9.984;2023-03-21T13:20:53;100970.81;;;11.09;100.00
65190;BME280;51777;53.570;9.984;2023-03-21T13:23:22;100971.09;;;11.06;100.00
65190;BME280;51777;53.570;9.984;2023-03-21T13:25:49;100970.22;;;11.15;100.00
65190;BME280;51777;53.570;9.984;2023-03-21T13:28:28;100970.22;;;11.15;100.00
65190;BME280;51777;53.570;9.984;2023-03-21T13:31:22;100968.59;;;11.14;100.00
65190;BME280;51777;53.570;9.984;2023-03-21T13:33:50;100959.78;;;11.07;100.00
65190;BME280;51777;53.570;9.984;2023-03-21T13:36:35;100965.78;;;11.08;100.00
65190;BME280;51777;53.570;9.984;2023-03-21T13:39:04;100961.00;;;11.03;100.00
65190;BME280;51777;53.570;9.984;2023-03-21T13:41:35;100961.41;;;11.08;100.00
65190;BME280;51777;53.570;9.984;2023-03-21T13:44:18;100962.59;;;11.14;100.00
65190;BME280;51777;53.570;9.984;2023-03-21T13:47:05;100955.28;;;11.09;100.00
65190;BME280;51777;53.570;9.984;2023-03-21T13:49:33;100953.88;;;11.15;100.00
65190;BME280;51777;53.570;9.984;2023-03-21T13:52:02;100961.38;;;11.18;100.00
65190;BME280;51777;53.570;9.984;2023-03-21T13:54:54;100949.75;;;11.22;100.00
65190;BME280;51777;53.570;9.984;2023-03-21T13:57:35;100951.91;;;11.27;100.00
65190;BME280;51777;53.570;9.984;2023-03-21T14:00:27;100951.03;;;11.18;100.00
65190;BME280;51777;53.570;9.984;2023-03-21T14:03:07;100946.41;;;11.12;100.00
65190;BME280;51777;53.570;9.984;2023-03-21T14:05:33;100949.50;;;11.15;100.00
65190;BME280;51777;53.570;9.984;2023-03-21T14:08:04;100939.31;;;11.14;100.00
65190;BME280;51777;53.570;9.984;2023-03-21T14:10:36;100942.72;;;11.14;100.00